Hauptseite
METAR-TAF:

METAR-TAF

Flughäfen :

Mannheim, Deutschland

City-Airport Mannheim

Breite: 49-28-21N, Länge: 008-30-56E, Höhe: 100 m

Beobachtung

Neuester Wetterbericht von vor 5 Stunden und 20 Minuten, um 19:20 UTC
Wind 4 kt aus Süd, variierte zwischen Süd/Südost und Südwest
Temperatur 9°C
Luftfeuchtigkeit 61%
Luftdruck 1014 hPa
Sichtweite 10 km oder mehr
keine Wolken unter 1500 m und keine Kumulonimbus oder Gewitterwolken

METAR: EDFM 271920Z 18004KT 160V220 CAVOK 09/02 Q1014

Zeit: 02:40 (00:40 UTC)

Prognose

Neuester Wetterbericht von vor 7 Stunden und 40 Minuten, um 17:00 UTC
Gültige Prognose vom 27 um 18 UTC bis 27 um 21 UTC
Wind 4 kt aus Nord
Sichtweite 10 km oder mehr
Aufgelockert bewölkt in der Höhe von 2500 ft

TAF: EDFM 271700Z 2718/2721 36004KT 9999 SCT025

Wetterbeobachtungen und Prognosen von mehr als 4000 Flughäfen (METAR und TAF Bericht).

Die verfügbaren Stationen werden durch gelbe und rote Markierungen auf der Karte dargestellt.

Führen Sie die Maus auf sie, um den Namen der Station zu sehen.

Darauf klicken, um die Beobachtung von Wetterbeobachtungen und Prognosen zu sehen.

Um die Karte zu ändern : klicken Sie auf den grünen Tasten mit einem schwarzen Kreuz Zum Vergrößern, auf den grünen Button mit einem Gedankenstrich zu verkleinern, oder auf die grünen Pfeile für benachbarte Karten.


METAR-TAF: